createdAt,value
2019-02-19T00:01:02.792Z,5.90
2019-02-19T00:03:32.324Z,5.90
2019-02-19T00:06:02.184Z,5.90
2019-02-19T00:08:31.749Z,5.90
2019-02-19T00:11:02.063Z,6.00
2019-02-19T00:13:32.057Z,6.00
2019-02-19T00:16:01.574Z,6.00
2019-02-19T00:18:31.075Z,6.00
2019-02-19T00:21:00.612Z,6.00
2019-02-19T00:23:30.507Z,6.10
2019-02-19T00:26:00.126Z,6.00
2019-02-19T00:28:29.656Z,6.10
2019-02-19T00:30:59.203Z,6.10
2019-02-19T00:33:28.742Z,6.20
2019-02-19T00:35:58.267Z,6.20
2019-02-19T00:38:27.810Z,6.20
2019-02-19T00:40:57.360Z,6.20
2019-02-19T00:43:32.608Z,6.10
2019-02-19T00:46:02.452Z,6.10
2019-02-19T00:48:31.976Z,6.10
2019-02-19T00:51:01.890Z,6.10
2019-02-19T00:53:31.414Z,6.00
2019-02-19T00:56:01.042Z,6.10
2019-02-19T00:58:30.519Z,6.10
2019-02-19T01:01:00.453Z,6.20
2019-02-19T01:03:30.050Z,6.30
2019-02-19T01:05:59.628Z,6.40
2019-02-19T01:08:29.583Z,6.40
2019-02-19T01:10:59.124Z,6.50
2019-02-19T01:13:28.654Z,6.60
2019-02-19T01:15:58.195Z,6.60
2019-02-19T01:18:27.738Z,6.70
2019-02-19T01:20:57.275Z,6.90
2019-02-19T01:23:26.739Z,7.00
2019-02-19T01:25:56.629Z,7.10
2019-02-19T01:28:26.148Z,7.10
2019-02-19T01:30:55.692Z,7.10
2019-02-19T01:33:25.260Z,7.10
2019-02-19T01:35:54.959Z,7.10
2019-02-19T01:38:24.464Z,7.10
2019-02-19T01:40:54.825Z,7.10
2019-02-19T01:43:24.349Z,7.10
2019-02-19T01:45:53.912Z,7.20
2019-02-19T01:48:23.433Z,7.20
2019-02-19T01:50:53.284Z,7.20
2019-02-19T01:53:22.795Z,7.20
2019-02-19T01:55:52.295Z,7.20
2019-02-19T01:58:22.440Z,7.10
2019-02-19T02:00:51.961Z,7.10
2019-02-19T02:03:21.878Z,7.10
2019-02-19T02:05:51.861Z,7.10
2019-02-19T02:08:21.404Z,7.10
2019-02-19T02:10:50.896Z,7.00
2019-02-19T02:13:20.452Z,7.00
2019-02-19T02:15:50.023Z,7.00
2019-02-19T02:18:19.540Z,7.00
2019-02-19T02:20:49.042Z,6.90
2019-02-19T02:23:18.508Z,6.90
2019-02-19T02:25:48.066Z,6.80
2019-02-19T02:28:17.616Z,6.80
2019-02-19T02:30:47.131Z,6.70
2019-02-19T02:33:16.628Z,6.70
2019-02-19T02:35:46.161Z,6.70
2019-02-19T02:38:15.679Z,6.70
2019-02-19T02:40:45.206Z,6.60
2019-02-19T02:43:14.714Z,6.60
2019-02-19T02:45:52.911Z,6.60
2019-02-19T02:48:15.805Z,6.60
2019-02-19T02:50:45.300Z,6.60
2019-02-19T02:53:14.860Z,6.60
2019-02-19T02:55:44.385Z,6.60
2019-02-19T02:58:13.963Z,6.50
2019-02-19T03:00:43.602Z,6.50
2019-02-19T03:03:13.161Z,6.40
2019-02-19T03:06:01.795Z,6.40
2019-02-19T03:08:31.362Z,6.40
2019-02-19T03:11:00.882Z,6.30
2019-02-19T03:13:31.308Z,6.40
2019-02-19T03:16:02.694Z,6.30
2019-02-19T03:18:32.004Z,6.30
2019-02-19T03:21:01.648Z,6.30
2019-02-19T03:23:31.547Z,6.30
2019-02-19T03:26:01.401Z,6.20
2019-02-19T03:28:31.830Z,6.20
2019-02-19T03:31:01.376Z,6.20
2019-02-19T03:33:30.865Z,6.10
2019-02-19T03:36:00.407Z,6.10
2019-02-19T03:38:29.907Z,6.10
2019-02-19T03:40:59.487Z,6.10
2019-02-19T03:43:28.978Z,6.10
2019-02-19T03:45:58.517Z,6.10
2019-02-19T03:48:28.062Z,6.10
2019-02-19T03:50:57.609Z,6.00
2019-02-19T03:53:27.123Z,6.00
2019-02-19T03:55:56.621Z,6.00
2019-02-19T03:58:26.108Z,5.90
2019-02-19T04:00:56.041Z,5.90
2019-02-19T04:03:25.623Z,5.90
2019-02-19T04:05:55.121Z,6.00
2019-02-19T04:08:24.689Z,6.00
2019-02-19T04:10:54.198Z,6.00
2019-02-19T04:13:23.744Z,6.00
2019-02-19T04:15:53.247Z,6.00
2019-02-19T04:18:22.796Z,6.00
2019-02-19T04:20:52.698Z,6.00
2019-02-19T04:23:22.249Z,6.00
2019-02-19T04:25:52.187Z,6.00
2019-02-19T04:28:22.107Z,6.00
2019-02-19T04:30:51.610Z,6.00
2019-02-19T04:33:21.114Z,6.00
2019-02-19T04:35:50.642Z,6.00
2019-02-19T04:38:20.627Z,6.00
2019-02-19T04:40:50.129Z,6.00
2019-02-19T04:43:19.641Z,6.00
2019-02-19T04:45:49.152Z,6.00
2019-02-19T04:48:18.631Z,6.00
2019-02-19T04:50:48.154Z,6.10
2019-02-19T04:53:17.793Z,6.10
2019-02-19T04:55:47.284Z,6.10
2019-02-19T04:58:16.821Z,6.20
2019-02-19T05:00:46.334Z,6.20
2019-02-19T05:03:16.356Z,6.20
2019-02-19T05:05:45.860Z,6.20
2019-02-19T05:08:15.409Z,6.20
2019-02-19T05:10:45.227Z,6.20
2019-02-19T05:13:14.754Z,6.20
2019-02-19T05:15:44.273Z,6.30
2019-02-19T05:18:14.234Z,6.30
2019-02-19T05:20:43.969Z,6.30
2019-02-19T05:23:13.453Z,6.30
2019-02-19T05:25:43.028Z,6.30
2019-02-19T05:28:12.951Z,6.30
2019-02-19T05:30:43.144Z,6.30
2019-02-19T05:33:12.794Z,6.30
2019-02-19T05:35:42.432Z,6.30
2019-02-19T05:38:11.990Z,6.30
2019-02-19T05:40:42.239Z,6.30
2019-02-19T05:43:12.215Z,6.30
2019-02-19T05:45:42.109Z,6.30
2019-02-19T05:48:11.700Z,6.30
2019-02-19T05:50:41.190Z,6.30
2019-02-19T05:53:11.307Z,6.30
2019-02-19T05:55:40.856Z,6.30
2019-02-19T05:58:10.715Z,6.20
2019-02-19T06:00:41.924Z,6.20
2019-02-19T06:03:11.974Z,6.20
2019-02-19T06:05:41.455Z,6.20
2019-02-19T06:08:11.271Z,6.20
2019-02-19T06:10:40.797Z,6.20
2019-02-19T06:13:10.300Z,6.20
2019-02-19T06:15:40.214Z,6.10
2019-02-19T06:18:10.665Z,6.20
2019-02-19T06:20:40.198Z,6.10
2019-02-19T06:23:10.248Z,6.10
2019-02-19T06:25:40.105Z,6.10
2019-02-19T06:28:10.035Z,6.10
2019-02-19T06:30:39.729Z,6.10
2019-02-19T06:33:09.208Z,6.10
2019-02-19T06:35:39.091Z,6.20
2019-02-19T06:38:08.819Z,6.20
2019-02-19T06:40:38.278Z,6.20
2019-02-19T06:43:07.786Z,6.20
2019-02-19T06:45:37.320Z,6.20
2019-02-19T06:48:06.846Z,6.20
2019-02-19T06:50:36.338Z,6.20
2019-02-19T06:53:05.864Z,6.20
2019-02-19T06:55:35.819Z,6.20
2019-02-19T06:58:05.343Z,6.20
2019-02-19T07:00:34.907Z,6.20
2019-02-19T07:03:19.341Z,6.10
2019-02-19T07:05:49.229Z,6.10
2019-02-19T07:08:18.792Z,6.10
2019-02-19T07:10:48.661Z,6.10
2019-02-19T07:13:18.193Z,6.00
2019-02-19T07:15:47.739Z,6.00
2019-02-19T07:18:17.261Z,6.00
2019-02-19T07:20:46.812Z,6.00
2019-02-19T07:23:16.310Z,6.00
2019-02-19T07:25:45.848Z,6.00
2019-02-19T07:28:15.395Z,6.10
2019-02-19T07:30:44.931Z,6.10
2019-02-19T07:33:14.498Z,6.10
2019-02-19T07:35:44.518Z,6.10
2019-02-19T07:38:13.995Z,6.10
2019-02-19T07:40:43.955Z,6.10
2019-02-19T07:43:13.480Z,6.10
2019-02-19T07:45:43.445Z,6.10
2019-02-19T07:48:12.956Z,6.10
2019-02-19T07:50:42.588Z,6.10
2019-02-19T07:53:12.125Z,6.10
2019-02-19T07:55:41.653Z,6.10
2019-02-19T07:58:11.175Z,6.10
2019-02-19T08:00:41.017Z,6.20
2019-02-19T08:03:10.865Z,6.20
2019-02-19T08:05:41.160Z,6.20
2019-02-19T08:08:10.729Z,6.10
2019-02-19T08:10:41.280Z,6.10
2019-02-19T08:13:10.819Z,6.10
2019-02-19T08:15:40.341Z,6.10
2019-02-19T08:18:10.722Z,6.10
2019-02-19T08:20:40.283Z,6.10
2019-02-19T08:23:10.298Z,6.00
2019-02-19T08:25:39.824Z,6.10
2019-02-19T08:28:09.372Z,6.10
2019-02-19T08:30:38.940Z,6.10
2019-02-19T08:33:08.556Z,6.20
2019-02-19T08:35:38.046Z,6.20
2019-02-19T08:38:08.005Z,6.20
2019-02-19T08:40:37.517Z,6.20
2019-02-19T08:43:07.044Z,6.30
2019-02-19T08:45:36.580Z,6.30
2019-02-19T08:48:06.115Z,6.30
2019-02-19T08:50:35.651Z,6.40
2019-02-19T08:53:05.201Z,6.40
2019-02-19T08:55:34.962Z,6.50
2019-02-19T08:58:05.409Z,6.50
2019-02-19T09:00:34.894Z,6.60
2019-02-19T09:03:04.952Z,6.60
2019-02-19T09:05:34.472Z,6.70
2019-02-19T09:08:04.440Z,6.70
2019-02-19T09:10:34.028Z,6.80
2019-02-19T09:13:04.107Z,6.90
2019-02-19T09:15:33.661Z,6.90
2019-02-19T09:18:03.177Z,6.90
2019-02-19T09:20:32.838Z,7.00
2019-02-19T09:23:02.745Z,7.10
2019-02-19T09:25:32.696Z,7.20
2019-02-19T09:28:02.211Z,7.40
2019-02-19T09:30:31.713Z,7.40
2019-02-19T09:33:02.084Z,7.40
2019-02-19T09:35:31.740Z,7.50
2019-02-19T09:38:01.291Z,7.50
2019-02-19T09:40:31.113Z,7.50
2019-02-19T09:43:00.682Z,7.50
2019-02-19T09:45:30.158Z,7.50
2019-02-19T09:48:01.429Z,7.50
2019-02-19T09:50:30.850Z,7.60
2019-02-19T09:53:00.511Z,7.70
2019-02-19T09:55:30.406Z,7.90
2019-02-19T09:58:01.040Z,7.80
2019-02-19T10:00:30.898Z,7.90
2019-02-19T10:03:00.457Z,8.00
2019-02-19T10:05:30.359Z,8.20
2019-02-19T10:08:00.244Z,8.40
2019-02-19T10:10:29.733Z,8.40
2019-02-19T10:12:59.255Z,8.40
2019-02-19T10:15:28.789Z,8.40
2019-02-19T10:17:58.738Z,8.40
2019-02-19T10:20:28.628Z,8.40
2019-02-19T10:22:58.164Z,8.60
2019-02-19T10:25:28.033Z,8.50
2019-02-19T10:27:57.572Z,8.50
2019-02-19T10:30:27.099Z,8.40
2019-02-19T10:32:56.770Z,8.40
2019-02-19T10:35:26.256Z,8.50
2019-02-19T10:37:56.061Z,8.70
2019-02-19T10:40:25.571Z,8.70
2019-02-19T10:42:55.244Z,8.70
2019-02-19T10:45:24.780Z,8.70
2019-02-19T10:47:54.252Z,8.80
2019-02-19T10:50:24.214Z,8.80
2019-02-19T10:52:53.740Z,8.80
2019-02-19T10:55:23.383Z,8.80
2019-02-19T10:57:52.915Z,8.90
2019-02-19T11:00:23.525Z,8.90
2019-02-19T11:02:53.080Z,9.00
2019-02-19T11:05:22.619Z,9.10
2019-02-19T11:07:52.173Z,9.30
2019-02-19T11:10:21.700Z,9.30
2019-02-19T11:12:51.201Z,9.30
2019-02-19T11:15:21.679Z,9.10
2019-02-19T11:17:51.968Z,9.00
2019-02-19T11:20:21.502Z,8.90
2019-02-19T11:22:51.364Z,8.80
2019-02-19T11:25:21.005Z,8.70
2019-02-19T11:27:50.510Z,8.60
2019-02-19T11:30:20.591Z,8.60
2019-02-19T11:32:50.354Z,8.70
2019-02-19T11:35:20.248Z,8.90
2019-02-19T11:37:49.739Z,9.00
2019-02-19T11:40:19.279Z,8.90
2019-02-19T11:42:48.836Z,8.90
2019-02-19T11:45:18.368Z,8.90
2019-02-19T11:47:48.230Z,8.90
2019-02-19T11:50:18.065Z,9.00
2019-02-19T11:52:47.581Z,9.00
2019-02-19T11:55:17.160Z,9.00
2019-02-19T11:57:47.045Z,9.10
2019-02-19T12:00:19.714Z,9.20
2019-02-19T12:02:49.221Z,9.20
2019-02-19T12:05:18.741Z,9.20
2019-02-19T12:07:48.311Z,9.20
2019-02-19T12:10:18.144Z,9.20
2019-02-19T12:12:48.032Z,9.20
2019-02-19T12:15:19.264Z,9.20
2019-02-19T12:17:48.923Z,9.20
2019-02-19T12:20:18.427Z,9.30
2019-02-19T12:22:48.589Z,9.30
2019-02-19T12:25:18.098Z,9.30
2019-02-19T12:27:47.625Z,9.30
2019-02-19T12:30:17.188Z,9.30
2019-02-19T12:32:46.680Z,9.40
2019-02-19T12:35:16.199Z,9.40
2019-02-19T12:37:45.714Z,9.40
2019-02-19T12:40:15.362Z,9.50
2019-02-19T12:42:45.213Z,9.60
2019-02-19T12:45:14.924Z,9.60
2019-02-19T12:47:44.403Z,9.60
2019-02-19T12:50:14.083Z,9.70
2019-02-19T12:52:43.626Z,9.70
2019-02-19T12:55:13.145Z,9.70
2019-02-19T12:57:42.662Z,9.70
2019-02-19T13:00:13.953Z,9.80
2019-02-19T13:02:44.211Z,9.70
2019-02-19T13:05:14.255Z,9.70
2019-02-19T13:07:43.784Z,9.70
2019-02-19T13:10:13.426Z,9.70
2019-02-19T13:12:42.952Z,9.70
2019-02-19T13:15:13.761Z,9.70
2019-02-19T13:17:43.276Z,9.80
2019-02-19T13:20:13.476Z,9.80
2019-02-19T13:22:42.967Z,9.80
2019-02-19T13:25:12.740Z,9.80
2019-02-19T13:27:42.236Z,9.80
2019-02-19T13:30:13.944Z,9.80
2019-02-19T13:32:43.511Z,9.70
2019-02-19T13:35:13.392Z,9.70
2019-02-19T13:37:43.050Z,9.60
2019-02-19T13:40:13.108Z,9.60
2019-02-19T13:42:42.673Z,9.60
2019-02-19T13:45:13.580Z,9.60
2019-02-19T13:47:43.050Z,9.60
2019-02-19T13:50:15.336Z,9.60
2019-02-19T13:53:03.728Z,9.50
2019-02-19T13:55:36.353Z,9.50
2019-02-19T13:58:05.834Z,9.40
2019-02-19T14:00:38.123Z,9.30
2019-02-19T14:03:07.650Z,9.30
2019-02-19T14:05:37.304Z,9.30
2019-02-19T14:08:14.207Z,9.20
2019-02-19T14:10:37.988Z,9.20
2019-02-19T14:13:07.507Z,9.20
2019-02-19T14:16:05.461Z,9.30
2019-02-19T14:18:53.905Z,9.40
2019-02-19T14:21:54.688Z,9.40
2019-02-19T14:24:58.530Z,9.50
2019-02-19T14:27:47.009Z,9.50
2019-02-19T14:30:34.170Z,9.50
2019-02-19T14:33:23.461Z,9.40
2019-02-19T14:36:04.862Z,9.40
2019-02-19T14:39:05.781Z,9.40
2019-02-19T14:41:52.608Z,9.40
2019-02-19T14:44:43.828Z,9.50
2019-02-19T14:47:35.012Z,9.50
2019-02-19T14:50:32.671Z,9.50
2019-02-19T14:53:30.282Z,9.50
2019-02-19T14:56:25.034Z,9.40
2019-02-19T14:59:12.593Z,9.40
2019-02-19T15:02:01.059Z,9.40
2019-02-19T15:04:53.119Z,9.30
2019-02-19T15:07:44.464Z,9.30
2019-02-19T15:10:41.201Z,9.20
2019-02-19T15:13:28.375Z,9.20
2019-02-19T15:16:15.458Z,9.20
2019-02-19T15:18:54.130Z,9.10
2019-02-19T15:21:41.302Z,9.10
2019-02-19T15:24:32.502Z,9.10
2019-02-19T15:27:21.352Z,9.10
2019-02-19T15:30:04.138Z,9.10
2019-02-19T15:32:52.892Z,9.10
2019-02-19T15:35:40.252Z,9.10
2019-02-19T15:38:19.956Z,9.10
2019-02-19T15:41:07.388Z,9.10
2019-02-19T15:43:52.202Z,9.10
2019-02-19T15:46:29.117Z,9.10
2019-02-19T15:49:22.173Z,9.10
2019-02-19T15:52:13.000Z,9.10
2019-02-19T15:55:03.029Z,9.00
2019-02-19T15:58:04.759Z,9.00
2019-02-19T16:00:43.512Z,9.00
2019-02-19T16:03:33.821Z,9.00
2019-02-19T16:06:22.054Z,9.00
2019-02-19T16:08:59.085Z,9.00
2019-02-19T16:11:50.780Z,9.00
2019-02-19T16:14:42.492Z,9.00
2019-02-19T16:17:32.074Z,9.00
2019-02-19T16:20:21.316Z,9.00
2019-02-19T16:23:09.988Z,8.90
2019-02-19T16:25:58.424Z,8.90
2019-02-19T16:29:02.405Z,8.90
2019-02-19T16:31:45.657Z,8.80
2019-02-19T16:34:37.302Z,8.80
2019-02-19T16:37:22.571Z,8.80
2019-02-19T16:40:17.761Z,8.70
2019-02-19T16:43:21.209Z,8.70
2019-02-19T16:46:10.085Z,8.70
2019-02-19T16:49:08.216Z,8.70
2019-02-19T16:51:46.195Z,8.70
2019-02-19T16:54:21.280Z,8.60
2019-02-19T16:57:08.763Z,8.60
2019-02-19T17:00:06.313Z,8.60
2019-02-19T17:03:07.106Z,8.60
2019-02-19T17:05:58.394Z,8.60
2019-02-19T17:08:45.443Z,8.50
2019-02-19T17:11:37.733Z,8.50
2019-02-19T17:14:38.658Z,8.40
2019-02-19T17:17:27.433Z,8.40
2019-02-19T17:20:21.243Z,8.40
2019-02-19T17:23:03.782Z,8.30
2019-02-19T17:26:01.322Z,8.30
2019-02-19T17:28:40.936Z,8.20
2019-02-19T17:31:29.412Z,8.20
2019-02-19T17:34:20.744Z,8.10
2019-02-19T17:37:06.354Z,8.10
2019-02-19T17:39:53.714Z,8.10
2019-02-19T17:42:57.340Z,8.10
2019-02-19T17:46:01.165Z,8.10
2019-02-19T17:48:58.448Z,8.10
2019-02-19T17:51:59.683Z,8.10
2019-02-19T17:54:50.957Z,8.10
2019-02-19T17:57:39.506Z,8.00
2019-02-19T18:00:19.428Z,8.00
2019-02-19T18:03:06.649Z,8.00
2019-02-19T18:05:46.000Z,8.00
2019-02-19T18:08:29.508Z,7.90
2019-02-19T18:11:16.975Z,7.90
2019-02-19T18:14:11.698Z,7.90
2019-02-19T18:16:54.169Z,7.80
2019-02-19T18:19:23.691Z,7.80
2019-02-19T18:21:53.194Z,7.80
2019-02-19T18:24:22.705Z,7.80
2019-02-19T18:26:52.289Z,7.70
2019-02-19T18:29:21.945Z,7.70
2019-02-19T18:31:51.448Z,7.60
2019-02-19T18:34:20.985Z,7.60
2019-02-19T18:36:50.516Z,7.50
2019-02-19T18:39:20.030Z,7.40
2019-02-19T18:41:49.531Z,7.30
2019-02-19T18:44:19.082Z,7.20
2019-02-19T18:46:48.920Z,7.10
2019-02-19T18:49:18.460Z,7.00
2019-02-19T18:51:48.336Z,6.90
2019-02-19T18:54:18.880Z,6.90
2019-02-19T18:56:48.391Z,6.80
2019-02-19T18:59:19.154Z,6.70
2019-02-19T19:01:48.636Z,6.60
2019-02-19T19:04:18.152Z,6.60
2019-02-19T19:06:47.725Z,6.50
2019-02-19T19:09:17.194Z,6.50
2019-02-19T19:11:47.124Z,6.40
2019-02-19T19:14:17.082Z,6.40
2019-02-19T19:16:46.601Z,6.40
2019-02-19T19:19:16.128Z,6.30
2019-02-19T19:21:45.789Z,6.30
2019-02-19T19:24:15.579Z,6.20
2019-02-19T19:26:45.111Z,6.20
2019-02-19T19:29:15.018Z,6.10
2019-02-19T19:31:44.914Z,6.10
2019-02-19T19:34:14.454Z,6.10
2019-02-19T19:36:44.771Z,6.10
2019-02-19T19:39:14.762Z,6.10
2019-02-19T19:41:44.407Z,6.10
2019-02-19T19:44:14.384Z,6.10
2019-02-19T19:46:43.919Z,6.10
2019-02-19T19:49:13.485Z,6.10
2019-02-19T19:51:43.083Z,6.10
2019-02-19T19:54:12.599Z,6.00
2019-02-19T19:56:42.478Z,6.00
2019-02-19T19:59:12.370Z,5.90
2019-02-19T20:01:42.304Z,5.90
2019-02-19T20:04:12.216Z,5.90
2019-02-19T20:06:42.045Z,5.90
2019-02-19T20:09:12.078Z,5.80
2019-02-19T20:11:42.352Z,5.80
2019-02-19T20:14:12.172Z,5.80
2019-02-19T20:16:41.632Z,5.80
2019-02-19T20:19:11.598Z,5.80
2019-02-19T20:21:41.544Z,5.70
2019-02-19T20:24:11.826Z,5.70
2019-02-19T20:26:41.379Z,5.70
2019-02-19T20:29:11.607Z,5.60
2019-02-19T20:31:41.466Z,5.60
2019-02-19T20:34:11.005Z,5.50
2019-02-19T20:36:40.505Z,5.50
2019-02-19T20:39:10.131Z,5.40
2019-02-19T20:41:39.987Z,5.40
2019-02-19T20:44:09.908Z,5.40
2019-02-19T20:46:39.827Z,5.30
2019-02-19T20:49:09.329Z,5.30
2019-02-19T20:51:39.387Z,5.20
2019-02-19T20:54:08.853Z,5.20
2019-02-19T20:56:38.354Z,5.10
2019-02-19T20:59:07.895Z,5.00
2019-02-19T21:01:37.439Z,5.00
2019-02-19T21:04:07.402Z,5.00
2019-02-19T21:06:36.951Z,5.00
2019-02-19T21:09:07.541Z,5.00
2019-02-19T21:11:37.060Z,5.00
2019-02-19T21:14:06.570Z,4.90
2019-02-19T21:16:36.114Z,4.90
2019-02-19T21:19:05.697Z,4.90
2019-02-19T21:21:35.501Z,4.90
2019-02-19T21:24:05.056Z,4.80
2019-02-19T21:26:34.983Z,4.80
2019-02-19T21:29:05.361Z,4.70
2019-02-19T21:31:38.125Z,4.70
2019-02-19T21:34:08.160Z,4.70
2019-02-19T21:36:37.695Z,4.70
2019-02-19T21:39:08.157Z,4.70
2019-02-19T21:41:38.171Z,4.80
2019-02-19T21:44:08.008Z,4.80
2019-02-19T21:46:37.480Z,4.80
2019-02-19T21:49:07.874Z,4.90
2019-02-19T21:51:38.516Z,4.80
2019-02-19T21:54:08.255Z,4.80
2019-02-19T21:56:37.768Z,4.80
2019-02-19T21:59:07.421Z,4.80
2019-02-19T22:01:37.028Z,4.80
2019-02-19T22:04:06.588Z,4.80
2019-02-19T22:06:36.348Z,4.80
2019-02-19T22:09:07.948Z,4.80
2019-02-19T22:11:37.513Z,4.80
2019-02-19T22:14:07.023Z,4.80
2019-02-19T22:16:36.587Z,4.70
2019-02-19T22:19:06.298Z,4.70
2019-02-19T22:21:44.016Z,4.70
2019-02-19T22:24:13.544Z,4.70
2019-02-19T22:26:44.137Z,4.80
2019-02-19T22:29:13.781Z,4.80
2019-02-19T22:31:43.277Z,4.90
2019-02-19T22:34:13.131Z,5.00
2019-02-19T22:36:42.991Z,5.00
2019-02-19T22:39:12.517Z,5.10
2019-02-19T22:41:42.101Z,5.10
2019-02-19T22:44:11.628Z,5.10
2019-02-19T22:46:41.161Z,5.20
2019-02-19T22:49:10.797Z,5.30
2019-02-19T22:51:40.311Z,5.30
2019-02-19T22:54:15.035Z,5.30
2019-02-19T22:56:46.149Z,5.30
2019-02-19T22:59:15.762Z,5.40
2019-02-19T23:01:54.269Z,5.30
2019-02-19T23:04:24.520Z,5.30
2019-02-19T23:06:54.082Z,5.40
2019-02-19T23:09:23.774Z,5.40
2019-02-19T23:11:53.467Z,5.40
2019-02-19T23:14:23.562Z,5.50
2019-02-19T23:16:53.422Z,5.40
2019-02-19T23:19:23.261Z,5.50
2019-02-19T23:21:53.232Z,5.50
2019-02-19T23:24:22.950Z,5.40
2019-02-19T23:26:52.521Z,5.40
2019-02-19T23:29:22.067Z,5.40
2019-02-19T23:31:51.580Z,5.40
2019-02-19T23:34:21.105Z,5.30
2019-02-19T23:37:00.884Z,5.20
2019-02-19T23:39:30.468Z,5.20
2019-02-19T23:42:00.064Z,5.10
2019-02-19T23:44:29.591Z,5.00
2019-02-19T23:46:59.212Z,4.90
2019-02-19T23:49:28.741Z,4.90
2019-02-19T23:51:58.265Z,4.90
2019-02-19T23:54:27.872Z,4.90
2019-02-19T23:56:57.437Z,4.90
2019-02-19T23:59:26.924Z,4.80
